sensor_id;sensor_type;location;lat;lon;timestamp;P1;durP1;ratioP1;P2;durP2;ratioP2
71610;SDS011;59459;51.172;6.682;2022-08-01T00:01:59;7.63;;;3.00;;
71610;SDS011;59459;51.172;6.682;2022-08-01T00:04:25;6.67;;;3.07;;
71610;SDS011;59459;51.172;6.682;2022-08-01T00:06:50;6.80;;;2.43;;
71610;SDS011;59459;51.172;6.682;2022-08-01T00:09:15;7.07;;;2.70;;
71610;SDS011;59459;51.172;6.682;2022-08-01T00:11:41;6.17;;;2.53;;
71610;SDS011;59459;51.172;6.682;2022-08-01T00:14:06;7.90;;;2.95;;
71610;SDS011;59459;51.172;6.682;2022-08-01T00:16:34;5.45;;;2.13;;
71610;SDS011;59459;51.172;6.682;2022-08-01T00:18:59;7.80;;;2.50;;
71610;SDS011;59459;51.172;6.682;2022-08-01T00:21:24;7.13;;;2.93;;
71610;SDS011;59459;51.172;6.682;2022-08-01T00:23:50;7.33;;;2.27;;
71610;SDS011;59459;51.172;6.682;2022-08-01T00:26:15;7.37;;;3.00;;
71610;SDS011;59459;51.172;6.682;2022-08-01T00:28:40;6.40;;;2.60;;
71610;SDS011;59459;51.172;6.682;2022-08-01T00:31:06;6.00;;;2.50;;
71610;SDS011;59459;51.172;6.682;2022-08-01T00:33:31;6.70;;;2.53;;
71610;SDS011;59459;51.172;6.682;2022-08-01T00:35:56;6.87;;;2.43;;
71610;SDS011;59459;51.172;6.682;2022-08-01T00:38:22;7.97;;;2.87;;
71610;SDS011;59459;51.172;6.682;2022-08-01T00:40:47;8.23;;;3.07;;
71610;SDS011;59459;51.172;6.682;2022-08-01T00:43:12;6.70;;;2.57;;
71610;SDS011;59459;51.172;6.682;2022-08-01T00:45:37;8.40;;;2.73;;
71610;SDS011;59459;51.172;6.682;2022-08-01T00:48:03;6.37;;;3.00;;
71610;SDS011;59459;51.172;6.682;2022-08-01T00:50:28;7.20;;;2.80;;
71610;SDS011;59459;51.172;6.682;2022-08-01T00:52:54;5.90;;;2.80;;
71610;SDS011;59459;51.172;6.682;2022-08-01T00:55:19;7.07;;;3.57;;
71610;SDS011;59459;51.172;6.682;2022-08-01T00:57:45;5.65;;;2.47;;
71610;SDS011;59459;51.172;6.682;2022-08-01T01:00:11;7.00;;;3.37;;
71610;SDS011;59459;51.172;6.682;2022-08-01T01:02:36;6.57;;;2.80;;
71610;SDS011;59459;51.172;6.682;2022-08-01T01:05:02;6.40;;;2.67;;
71610;SDS011;59459;51.172;6.682;2022-08-01T01:10:12;7.45;;;3.15;;
71610;SDS011;59459;51.172;6.682;2022-08-01T01:12:44;6.53;;;3.35;;
71610;SDS011;59459;51.172;6.682;2022-08-01T01:17:41;8.90;;;2.77;;
71610;SDS011;59459;51.172;6.682;2022-08-01T01:20:11;6.35;;;2.85;;
71610;SDS011;59459;51.172;6.682;2022-08-01T01:30:32;7.70;;;3.00;;
71610;SDS011;59459;51.172;6.682;2022-08-01T01:32:59;6.80;;;2.78;;
71610;SDS011;59459;51.172;6.682;2022-08-01T01:35:26;7.90;;;3.20;;
71610;SDS011;59459;51.172;6.682;2022-08-01T01:37:56;8.30;;;3.60;;
71610;SDS011;59459;51.172;6.682;2022-08-01T01:40:23;6.75;;;3.47;;
71610;SDS011;59459;51.172;6.682;2022-08-01T01:42:49;8.20;;;3.37;;
71610;SDS011;59459;51.172;6.682;2022-08-01T01:45:15;9.02;;;3.40;;
71610;SDS011;59459;51.172;6.682;2022-08-01T01:47:40;7.18;;;3.28;;
71610;SDS011;59459;51.172;6.682;2022-08-01T01:50:07;7.67;;;3.60;;
71610;SDS011;59459;51.172;6.682;2022-08-01T01:52:33;9.98;;;3.08;;
71610;SDS011;59459;51.172;6.682;2022-08-01T01:54:59;9.52;;;3.20;;
71610;SDS011;59459;51.172;6.682;2022-08-01T01:57:26;9.20;;;3.65;;
71610;SDS011;59459;51.172;6.682;2022-08-01T01:59:52;6.43;;;2.70;;
71610;SDS011;59459;51.172;6.682;2022-08-01T02:02:18;7.30;;;2.80;;
71610;SDS011;59459;51.172;6.682;2022-08-01T02:04:44;7.40;;;3.47;;
71610;SDS011;59459;51.172;6.682;2022-08-01T02:07:11;7.22;;;2.53;;
71610;SDS011;59459;51.172;6.682;2022-08-01T02:09:37;7.40;;;2.97;;
71610;SDS011;59459;51.172;6.682;2022-08-01T02:12:05;8.40;;;2.70;;
71610;SDS011;59459;51.172;6.682;2022-08-01T02:14:31;7.73;;;2.80;;
71610;SDS011;59459;51.172;6.682;2022-08-01T02:16:57;6.28;;;2.60;;
71610;SDS011;59459;51.172;6.682;2022-08-01T02:19:24;8.75;;;3.10;;
71610;SDS011;59459;51.172;6.682;2022-08-01T02:21:51;6.80;;;2.83;;
71610;SDS011;59459;51.172;6.682;2022-08-01T02:27:03;6.15;;;3.00;;
71610;SDS011;59459;51.172;6.682;2022-08-01T02:29:33;6.40;;;2.57;;
71610;SDS011;59459;51.172;6.682;2022-08-01T02:32:01;8.30;;;3.15;;
71610;SDS011;59459;51.172;6.682;2022-08-01T02:34:27;7.85;;;2.83;;
71610;SDS011;59459;51.172;6.682;2022-08-01T02:36:56;7.03;;;2.77;;
71610;SDS011;59459;51.172;6.682;2022-08-01T02:39:23;7.68;;;2.67;;
71610;SDS011;59459;51.172;6.682;2022-08-01T02:41:52;8.88;;;2.80;;
71610;SDS011;59459;51.172;6.682;2022-08-01T02:44:24;7.20;;;2.50;;
71610;SDS011;59459;51.172;6.682;2022-08-01T02:46:56;8.27;;;3.00;;
71610;SDS011;59459;51.172;6.682;2022-08-01T02:49:22;8.80;;;2.80;;
71610;SDS011;59459;51.172;6.682;2022-08-01T02:51:48;7.35;;;2.88;;
71610;SDS011;59459;51.172;6.682;2022-08-01T02:54:15;7.53;;;2.88;;
71610;SDS011;59459;51.172;6.682;2022-08-01T02:56:40;9.65;;;3.22;;
71610;SDS011;59459;51.172;6.682;2022-08-01T02:59:11;6.70;;;2.90;;
71610;SDS011;59459;51.172;6.682;2022-08-01T03:01:37;7.90;;;3.22;;
71610;SDS011;59459;51.172;6.682;2022-08-01T03:04:03;10.07;;;3.30;;
71610;SDS011;59459;51.172;6.682;2022-08-01T03:06:30;8.50;;;3.50;;
71610;SDS011;59459;51.172;6.682;2022-08-01T03:08:56;7.60;;;2.80;;
71610;SDS011;59459;51.172;6.682;2022-08-01T03:11:22;7.20;;;2.97;;
71610;SDS011;59459;51.172;6.682;2022-08-01T03:13:49;8.68;;;3.45;;
71610;SDS011;59459;51.172;6.682;2022-08-01T03:16:15;9.88;;;3.92;;
71610;SDS011;59459;51.172;6.682;2022-08-01T03:18:41;7.25;;;3.55;;
71610;SDS011;59459;51.172;6.682;2022-08-01T03:21:09;8.07;;;3.40;;
71610;SDS011;59459;51.172;6.682;2022-08-01T03:23:35;9.80;;;3.30;;
71610;SDS011;59459;51.172;6.682;2022-08-01T03:26:01;9.27;;;3.83;;
71610;SDS011;59459;51.172;6.682;2022-08-01T03:28:27;12.23;;;4.30;;
71610;SDS011;59459;51.172;6.682;2022-08-01T03:30:52;8.77;;;4.00;;
71610;SDS011;59459;51.172;6.682;2022-08-01T03:33:17;11.47;;;4.30;;
71610;SDS011;59459;51.172;6.682;2022-08-01T03:35:45;10.88;;;4.43;;
71610;SDS011;59459;51.172;6.682;2022-08-01T03:38:11;10.83;;;3.90;;
71610;SDS011;59459;51.172;6.682;2022-08-01T03:40:40;11.05;;;3.95;;
71610;SDS011;59459;51.172;6.682;2022-08-01T03:43:07;11.63;;;4.25;;
71610;SDS011;59459;51.172;6.682;2022-08-01T03:45:34;8.77;;;4.10;;
71610;SDS011;59459;51.172;6.682;2022-08-01T03:48:01;11.00;;;5.07;;
71610;SDS011;59459;51.172;6.682;2022-08-01T03:50:26;11.33;;;5.27;;
71610;SDS011;59459;51.172;6.682;2022-08-01T03:52:52;11.15;;;5.13;;
71610;SDS011;59459;51.172;6.682;2022-08-01T03:55:18;12.68;;;5.97;;
71610;SDS011;59459;51.172;6.682;2022-08-01T03:57:45;11.60;;;5.32;;
71610;SDS011;59459;51.172;6.682;2022-08-01T04:00:12;12.63;;;5.90;;
71610;SDS011;59459;51.172;6.682;2022-08-01T04:02:37;12.85;;;5.80;;
71610;SDS011;59459;51.172;6.682;2022-08-01T04:05:03;11.40;;;5.27;;
71610;SDS011;59459;51.172;6.682;2022-08-01T04:07:29;12.03;;;5.57;;
71610;SDS011;59459;51.172;6.682;2022-08-01T04:09:54;12.27;;;6.03;;
71610;SDS011;59459;51.172;6.682;2022-08-01T04:12:20;14.40;;;6.53;;
71610;SDS011;59459;51.172;6.682;2022-08-01T04:14:45;14.13;;;7.03;;
71610;SDS011;59459;51.172;6.682;2022-08-01T04:17:10;14.43;;;6.15;;
71610;SDS011;59459;51.172;6.682;2022-08-01T04:19:36;13.57;;;7.40;;
71610;SDS011;59459;51.172;6.682;2022-08-01T04:22:01;15.73;;;7.63;;
71610;SDS011;59459;51.172;6.682;2022-08-01T04:24:27;19.92;;;8.10;;
71610;SDS011;59459;51.172;6.682;2022-08-01T04:26:55;14.35;;;7.05;;
71610;SDS011;59459;51.172;6.682;2022-08-01T04:29:21;17.35;;;7.75;;
71610;SDS011;59459;51.172;6.682;2022-08-01T04:31:48;17.27;;;7.93;;
71610;SDS011;59459;51.172;6.682;2022-08-01T04:34:14;16.48;;;8.85;;
71610;SDS011;59459;51.172;6.682;2022-08-01T04:36:40;18.85;;;8.55;;
71610;SDS011;59459;51.172;6.682;2022-08-01T04:39:07;17.35;;;8.43;;
71610;SDS011;59459;51.172;6.682;2022-08-01T04:41:33;17.90;;;8.00;;
71610;SDS011;59459;51.172;6.682;2022-08-01T04:43:59;18.30;;;8.30;;
71610;SDS011;59459;51.172;6.682;2022-08-01T04:46:24;18.90;;;9.47;;
71610;SDS011;59459;51.172;6.682;2022-08-01T04:48:50;21.33;;;8.50;;
71610;SDS011;59459;51.172;6.682;2022-08-01T04:51:16;17.42;;;8.13;;
71610;SDS011;59459;51.172;6.682;2022-08-01T04:53:42;18.67;;;8.47;;
71610;SDS011;59459;51.172;6.682;2022-08-01T04:56:08;18.02;;;8.50;;
71610;SDS011;59459;51.172;6.682;2022-08-01T04:58:33;21.83;;;8.90;;
71610;SDS011;59459;51.172;6.682;2022-08-01T05:00:58;20.23;;;8.87;;
71610;SDS011;59459;51.172;6.682;2022-08-01T05:03:23;19.20;;;9.37;;
71610;SDS011;59459;51.172;6.682;2022-08-01T05:05:49;18.07;;;8.73;;
71610;SDS011;59459;51.172;6.682;2022-08-01T05:08:14;18.60;;;8.93;;
71610;SDS011;59459;51.172;6.682;2022-08-01T05:10:41;17.55;;;9.13;;
71610;SDS011;59459;51.172;6.682;2022-08-01T05:13:06;21.13;;;9.87;;
71610;SDS011;59459;51.172;6.682;2022-08-01T05:15:31;18.07;;;9.27;;
71610;SDS011;59459;51.172;6.682;2022-08-01T05:17:57;19.40;;;9.40;;
71610;SDS011;59459;51.172;6.682;2022-08-01T05:20:22;18.75;;;8.82;;
71610;SDS011;59459;51.172;6.682;2022-08-01T05:22:47;20.77;;;9.17;;
71610;SDS011;59459;51.172;6.682;2022-08-01T05:25:12;18.10;;;8.10;;
71610;SDS011;59459;51.172;6.682;2022-08-01T05:27:38;17.60;;;9.17;;
71610;SDS011;59459;51.172;6.682;2022-08-01T05:30:08;18.60;;;8.73;;
71610;SDS011;59459;51.172;6.682;2022-08-01T05:32:34;20.75;;;9.25;;
71610;SDS011;59459;51.172;6.682;2022-08-01T05:34:59;20.20;;;9.13;;
71610;SDS011;59459;51.172;6.682;2022-08-01T05:37:24;19.47;;;8.53;;
71610;SDS011;59459;51.172;6.682;2022-08-01T05:39:50;20.33;;;9.37;;
71610;SDS011;59459;51.172;6.682;2022-08-01T05:42:15;19.50;;;8.47;;
71610;SDS011;59459;51.172;6.682;2022-08-01T05:44:40;16.20;;;8.33;;
71610;SDS011;59459;51.172;6.682;2022-08-01T05:47:06;20.20;;;9.13;;
71610;SDS011;59459;51.172;6.682;2022-08-01T05:49:31;16.03;;;7.83;;
71610;SDS011;59459;51.172;6.682;2022-08-01T05:51:56;20.87;;;8.83;;
71610;SDS011;59459;51.172;6.682;2022-08-01T05:54:21;17.47;;;7.87;;
71610;SDS011;59459;51.172;6.682;2022-08-01T05:56:46;15.43;;;8.07;;
71610;SDS011;59459;51.172;6.682;2022-08-01T05:59:12;18.87;;;8.27;;
71610;SDS011;59459;51.172;6.682;2022-08-01T06:01:37;18.37;;;8.40;;
71610;SDS011;59459;51.172;6.682;2022-08-01T06:04:02;17.37;;;8.17;;
71610;SDS011;59459;51.172;6.682;2022-08-01T06:06:27;18.70;;;8.23;;
71610;SDS011;59459;51.172;6.682;2022-08-01T06:08:53;17.53;;;8.50;;
71610;SDS011;59459;51.172;6.682;2022-08-01T06:11:18;17.77;;;8.33;;
71610;SDS011;59459;51.172;6.682;2022-08-01T06:13:43;17.30;;;7.53;;
71610;SDS011;59459;51.172;6.682;2022-08-01T06:16:08;18.13;;;8.50;;
71610;SDS011;59459;51.172;6.682;2022-08-01T06:18:34;15.50;;;8.10;;
71610;SDS011;59459;51.172;6.682;2022-08-01T06:20:59;16.30;;;7.90;;
71610;SDS011;59459;51.172;6.682;2022-08-01T06:23:24;14.80;;;7.47;;
71610;SDS011;59459;51.172;6.682;2022-08-01T06:25:53;15.80;;;7.20;;
71610;SDS011;59459;51.172;6.682;2022-08-01T06:28:19;16.40;;;7.23;;
71610;SDS011;59459;51.172;6.682;2022-08-01T06:30:44;15.90;;;7.65;;
71610;SDS011;59459;51.172;6.682;2022-08-01T06:33:09;17.87;;;7.40;;
71610;SDS011;59459;51.172;6.682;2022-08-01T06:35:35;17.80;;;7.70;;
71610;SDS011;59459;51.172;6.682;2022-08-01T06:38:01;16.63;;;6.83;;
71610;SDS011;59459;51.172;6.682;2022-08-01T06:40:26;14.77;;;7.97;;
71610;SDS011;59459;51.172;6.682;2022-08-01T06:42:51;17.03;;;8.30;;
71610;SDS011;59459;51.172;6.682;2022-08-01T06:45:17;15.70;;;8.07;;
71610;SDS011;59459;51.172;6.682;2022-08-01T06:47:42;15.30;;;7.83;;
71610;SDS011;59459;51.172;6.682;2022-08-01T06:50:08;15.18;;;7.40;;
71610;SDS011;59459;51.172;6.682;2022-08-01T06:52:34;16.67;;;7.40;;
71610;SDS011;59459;51.172;6.682;2022-08-01T06:54:59;17.85;;;8.25;;
71610;SDS011;59459;51.172;6.682;2022-08-01T06:57:25;16.07;;;8.10;;
71610;SDS011;59459;51.172;6.682;2022-08-01T06:59:50;15.83;;;7.27;;
71610;SDS011;59459;51.172;6.682;2022-08-01T07:02:15;17.60;;;8.40;;
71610;SDS011;59459;51.172;6.682;2022-08-01T07:04:41;16.23;;;7.23;;
71610;SDS011;59459;51.172;6.682;2022-08-01T07:07:07;16.30;;;8.60;;
71610;SDS011;59459;51.172;6.682;2022-08-01T07:09:32;14.98;;;7.88;;
71610;SDS011;59459;51.172;6.682;2022-08-01T07:11:57;16.97;;;7.30;;
71610;SDS011;59459;51.172;6.682;2022-08-01T07:14:23;16.03;;;6.87;;
71610;SDS011;59459;51.172;6.682;2022-08-01T07:16:48;14.48;;;6.75;;
71610;SDS011;59459;51.172;6.682;2022-08-01T07:19:14;14.80;;;7.07;;
71610;SDS011;59459;51.172;6.682;2022-08-01T07:21:39;16.27;;;7.37;;
71610;SDS011;59459;51.172;6.682;2022-08-01T07:24:05;14.03;;;7.23;;
71610;SDS011;59459;51.172;6.682;2022-08-01T07:26:30;13.48;;;6.47;;
71610;SDS011;59459;51.172;6.682;2022-08-01T07:28:56;15.10;;;6.73;;
71610;SDS011;59459;51.172;6.682;2022-08-01T07:31:21;13.60;;;5.83;;
71610;SDS011;59459;51.172;6.682;2022-08-01T07:33:46;18.40;;;6.60;;
71610;SDS011;59459;51.172;6.682;2022-08-01T07:36:11;12.77;;;6.00;;
71610;SDS011;59459;51.172;6.682;2022-08-01T07:38:36;14.17;;;6.47;;
71610;SDS011;59459;51.172;6.682;2022-08-01T07:41:02;11.87;;;5.90;;
71610;SDS011;59459;51.172;6.682;2022-08-01T07:43:27;13.77;;;7.00;;
71610;SDS011;59459;51.172;6.682;2022-08-01T07:45:52;13.67;;;6.47;;
71610;SDS011;59459;51.172;6.682;2022-08-01T07:48:18;12.80;;;6.43;;
71610;SDS011;59459;51.172;6.682;2022-08-01T07:50:45;13.02;;;6.50;;
71610;SDS011;59459;51.172;6.682;2022-08-01T07:53:10;11.77;;;5.83;;
71610;SDS011;59459;51.172;6.682;2022-08-01T07:55:36;14.27;;;6.67;;
71610;SDS011;59459;51.172;6.682;2022-08-01T07:58:01;11.87;;;5.97;;
71610;SDS011;59459;51.172;6.682;2022-08-01T08:00:26;13.23;;;6.67;;
71610;SDS011;59459;51.172;6.682;2022-08-01T08:02:53;14.10;;;6.47;;
71610;SDS011;59459;51.172;6.682;2022-08-01T08:05:18;13.40;;;6.60;;
71610;SDS011;59459;51.172;6.682;2022-08-01T08:07:44;12.07;;;6.32;;
71610;SDS011;59459;51.172;6.682;2022-08-01T08:10:09;11.03;;;5.67;;
71610;SDS011;59459;51.172;6.682;2022-08-01T08:12:34;11.70;;;5.90;;
71610;SDS011;59459;51.172;6.682;2022-08-01T08:15:00;13.03;;;5.63;;
71610;SDS011;59459;51.172;6.682;2022-08-01T08:17:26;12.60;;;5.63;;
71610;SDS011;59459;51.172;6.682;2022-08-01T08:19:51;11.37;;;5.60;;
71610;SDS011;59459;51.172;6.682;2022-08-01T08:22:16;9.53;;;4.67;;
71610;SDS011;59459;51.172;6.682;2022-08-01T08:24:42;10.27;;;4.57;;
71610;SDS011;59459;51.172;6.682;2022-08-01T08:27:07;9.47;;;4.87;;
71610;SDS011;59459;51.172;6.682;2022-08-01T08:29:32;10.33;;;4.73;;
71610;SDS011;59459;51.172;6.682;2022-08-01T08:31:58;8.90;;;4.23;;
71610;SDS011;59459;51.172;6.682;2022-08-01T08:34:23;9.17;;;4.23;;
71610;SDS011;59459;51.172;6.682;2022-08-01T08:36:49;9.20;;;4.00;;
71610;SDS011;59459;51.172;6.682;2022-08-01T08:39:15;9.57;;;4.10;;
71610;SDS011;59459;51.172;6.682;2022-08-01T08:41:40;8.35;;;3.28;;
71610;SDS011;59459;51.172;6.682;2022-08-01T08:44:06;9.63;;;3.70;;
71610;SDS011;59459;51.172;6.682;2022-08-01T08:46:32;10.13;;;3.53;;
71610;SDS011;59459;51.172;6.682;2022-08-01T08:48:58;7.82;;;3.58;;
71610;SDS011;59459;51.172;6.682;2022-08-01T08:51:24;7.78;;;3.45;;
71610;SDS011;59459;51.172;6.682;2022-08-01T08:53:50;7.70;;;3.17;;
71610;SDS011;59459;51.172;6.682;2022-08-01T08:56:17;8.27;;;3.43;;
71610;SDS011;59459;51.172;6.682;2022-08-01T08:58:43;10.80;;;3.67;;
71610;SDS011;59459;51.172;6.682;2022-08-01T09:01:09;9.55;;;3.47;;
71610;SDS011;59459;51.172;6.682;2022-08-01T09:03:35;7.78;;;3.47;;
71610;SDS011;59459;51.172;6.682;2022-08-01T09:06:00;7.57;;;3.33;;
71610;SDS011;59459;51.172;6.682;2022-08-01T09:08:25;6.57;;;3.40;;
71610;SDS011;59459;51.172;6.682;2022-08-01T09:10:51;7.13;;;3.70;;
71610;SDS011;59459;51.172;6.682;2022-08-01T09:13:16;8.03;;;3.73;;
71610;SDS011;59459;51.172;6.682;2022-08-01T09:15:45;8.33;;;3.43;;
71610;SDS011;59459;51.172;6.682;2022-08-01T09:23:35;7.32;;;3.38;;
71610;SDS011;59459;51.172;6.682;2022-08-01T09:26:00;7.97;;;3.78;;
71610;SDS011;59459;51.172;6.682;2022-08-01T09:28:28;7.87;;;3.93;;
71610;SDS011;59459;51.172;6.682;2022-08-01T09:30:55;7.25;;;3.75;;
71610;SDS011;59459;51.172;6.682;2022-08-01T09:33:21;6.57;;;3.13;;
71610;SDS011;59459;51.172;6.682;2022-08-01T09:35:46;7.00;;;3.43;;
71610;SDS011;59459;51.172;6.682;2022-08-01T09:38:25;7.83;;;3.60;;
71610;SDS011;59459;51.172;6.682;2022-08-01T09:41:00;6.53;;;3.40;;
71610;SDS011;59459;51.172;6.682;2022-08-01T09:43:26;6.40;;;2.90;;
71610;SDS011;59459;51.172;6.682;2022-08-01T09:45:51;6.03;;;2.50;;
71610;SDS011;59459;51.172;6.682;2022-08-01T09:48:17;5.97;;;3.20;;
71610;SDS011;59459;51.172;6.682;2022-08-01T09:50:43;5.75;;;2.72;;
71610;SDS011;59459;51.172;6.682;2022-08-01T09:53:09;6.20;;;3.37;;
71610;SDS011;59459;51.172;6.682;2022-08-01T09:55:35;6.32;;;2.97;;
71610;SDS011;59459;51.172;6.682;2022-08-01T09:58:00;5.73;;;3.10;;
71610;SDS011;59459;51.172;6.682;2022-08-01T10:00:26;5.43;;;2.47;;
71610;SDS011;59459;51.172;6.682;2022-08-01T10:02:51;5.53;;;2.43;;
71610;SDS011;59459;51.172;6.682;2022-08-01T10:05:16;6.33;;;2.93;;
71610;SDS011;59459;51.172;6.682;2022-08-01T10:07:58;6.20;;;3.00;;
71610;SDS011;59459;51.172;6.682;2022-08-01T10:10:23;6.05;;;2.95;;
71610;SDS011;59459;51.172;6.682;2022-08-01T10:12:48;5.33;;;2.60;;
71610;SDS011;59459;51.172;6.682;2022-08-01T10:15:16;5.75;;;3.20;;
71610;SDS011;59459;51.172;6.682;2022-08-01T10:17:42;4.57;;;2.42;;
71610;SDS011;59459;51.172;6.682;2022-08-01T10:20:10;6.80;;;3.50;;
71610;SDS011;59459;51.172;6.682;2022-08-01T10:22:36;5.70;;;3.10;;
71610;SDS011;59459;51.172;6.682;2022-08-01T10:25:03;4.90;;;2.72;;
71610;SDS011;59459;51.172;6.682;2022-08-01T10:27:28;5.17;;;2.37;;
71610;SDS011;59459;51.172;6.682;2022-08-01T10:29:55;5.93;;;2.53;;
71610;SDS011;59459;51.172;6.682;2022-08-01T10:32:22;4.65;;;2.70;;
71610;SDS011;59459;51.172;6.682;2022-08-01T10:34:48;4.97;;;1.70;;
71610;SDS011;59459;51.172;6.682;2022-08-01T10:37:14;5.30;;;2.53;;
71610;SDS011;59459;51.172;6.682;2022-08-01T10:39:39;5.03;;;2.50;;
71610;SDS011;59459;51.172;6.682;2022-08-01T10:42:05;6.83;;;2.23;;
71610;SDS011;59459;51.172;6.682;2022-08-01T10:44:31;5.00;;;2.03;;
71610;SDS011;59459;51.172;6.682;2022-08-01T10:47:02;4.75;;;1.58;;
71610;SDS011;59459;51.172;6.682;2022-08-01T10:49:29;4.35;;;1.58;;
71610;SDS011;59459;51.172;6.682;2022-08-01T10:51:55;3.67;;;1.63;;
71610;SDS011;59459;51.172;6.682;2022-08-01T10:54:23;6.23;;;1.70;;
71610;SDS011;59459;51.172;6.682;2022-08-01T10:56:50;6.22;;;1.73;;
71610;SDS011;59459;51.172;6.682;2022-08-01T11:01:59;3.73;;;1.70;;
71610;SDS011;59459;51.172;6.682;2022-08-01T11:04:37;4.78;;;2.13;;
71610;SDS011;59459;51.172;6.682;2022-08-01T11:07:13;5.68;;;1.60;;
71610;SDS011;59459;51.172;6.682;2022-08-01T11:09:41;3.83;;;1.70;;
71610;SDS011;59459;51.172;6.682;2022-08-01T11:12:11;4.90;;;2.35;;
71610;SDS011;59459;51.172;6.682;2022-08-01T11:33:11;3.58;;;1.60;;
71610;SDS011;59459;51.172;6.682;2022-08-01T11:35:37;3.30;;;1.25;;
71610;SDS011;59459;51.172;6.682;2022-08-01T11:38:25;4.88;;;1.48;;
71610;SDS011;59459;51.172;6.682;2022-08-01T11:51:55;3.35;;;2.35;;
71610;SDS011;59459;51.172;6.682;2022-08-01T11:54:24;2.50;;;2.20;;
71610;SDS011;59459;51.172;6.682;2022-08-01T11:56:49;3.38;;;1.73;;
71610;SDS011;59459;51.172;6.682;2022-08-01T11:59:15;3.07;;;1.97;;
71610;SDS011;59459;51.172;6.682;2022-08-01T12:01:40;3.50;;;1.63;;
71610;SDS011;59459;51.172;6.682;2022-08-01T12:04:06;3.05;;;1.70;;
71610;SDS011;59459;51.172;6.682;2022-08-01T12:06:31;4.37;;;2.10;;
71610;SDS011;59459;51.172;6.682;2022-08-01T12:09:14;3.07;;;1.80;;
71610;SDS011;59459;51.172;6.682;2022-08-01T12:11:39;1.83;;;1.10;;
71610;SDS011;59459;51.172;6.682;2022-08-01T12:14:04;2.23;;;1.13;;
71610;SDS011;59459;51.172;6.682;2022-08-01T12:16:31;2.17;;;1.17;;
71610;SDS011;59459;51.172;6.682;2022-08-01T12:18:57;1.92;;;1.00;;
71610;SDS011;59459;51.172;6.682;2022-08-01T12:21:22;2.50;;;1.60;;
71610;SDS011;59459;51.172;6.682;2022-08-01T12:23:59;2.33;;;1.90;;
71610;SDS011;59459;51.172;6.682;2022-08-01T12:26:38;2.70;;;1.75;;
71610;SDS011;59459;51.172;6.682;2022-08-01T12:29:03;2.80;;;1.70;;
71610;SDS011;59459;51.172;6.682;2022-08-01T12:31:34;2.70;;;1.20;;
71610;SDS011;59459;51.172;6.682;2022-08-01T12:36:43;2.30;;;1.45;;
71610;SDS011;59459;51.172;6.682;2022-08-01T12:39:09;1.40;;;0.80;;
71610;SDS011;59459;51.172;6.682;2022-08-01T12:41:35;2.20;;;1.10;;
71610;SDS011;59459;51.172;6.682;2022-08-01T12:44:01;1.92;;;1.33;;
71610;SDS011;59459;51.172;6.682;2022-08-01T12:46:26;2.00;;;1.77;;
71610;SDS011;59459;51.172;6.682;2022-08-01T12:48:52;2.20;;;1.43;;
71610;SDS011;59459;51.172;6.682;2022-08-01T12:51:17;1.90;;;1.10;;
71610;SDS011;59459;51.172;6.682;2022-08-01T12:53:42;2.33;;;1.15;;
71610;SDS011;59459;51.172;6.682;2022-08-01T12:56:09;2.30;;;1.20;;
71610;SDS011;59459;51.172;6.682;2022-08-01T12:58:37;1.75;;;1.08;;
71610;SDS011;59459;51.172;6.682;2022-08-01T13:01:04;2.70;;;1.20;;
71610;SDS011;59459;51.172;6.682;2022-08-01T13:03:31;3.35;;;1.30;;
71610;SDS011;59459;51.172;6.682;2022-08-01T13:05:57;2.80;;;1.20;;
71610;SDS011;59459;51.172;6.682;2022-08-01T13:10:48;2.20;;;1.20;;
71610;SDS011;59459;51.172;6.682;2022-08-01T13:13:14;2.50;;;1.20;;
71610;SDS011;59459;51.172;6.682;2022-08-01T13:15:41;3.75;;;1.50;;
71610;SDS011;59459;51.172;6.682;2022-08-01T13:18:28;3.27;;;1.63;;
71610;SDS011;59459;51.172;6.682;2022-08-01T13:21:12;4.07;;;1.20;;
71610;SDS011;59459;51.172;6.682;2022-08-01T13:23:38;2.90;;;1.38;;
71610;SDS011;59459;51.172;6.682;2022-08-01T13:26:04;2.05;;;0.95;;
71610;SDS011;59459;51.172;6.682;2022-08-01T13:28:29;3.33;;;1.40;;
71610;SDS011;59459;51.172;6.682;2022-08-01T13:33:22;2.53;;;1.10;;
71610;SDS011;59459;51.172;6.682;2022-08-01T13:35:49;2.70;;;1.23;;
71610;SDS011;59459;51.172;6.682;2022-08-01T13:38:14;2.47;;;1.40;;
71610;SDS011;59459;51.172;6.682;2022-08-01T13:40:39;3.33;;;1.50;;
71610;SDS011;59459;51.172;6.682;2022-08-01T13:43:05;2.33;;;1.17;;
71610;SDS011;59459;51.172;6.682;2022-08-01T13:45:30;3.03;;;1.10;;
71610;SDS011;59459;51.172;6.682;2022-08-01T13:47:55;3.20;;;1.40;;
71610;SDS011;59459;51.172;6.682;2022-08-01T13:50:20;2.97;;;1.30;;
71610;SDS011;59459;51.172;6.682;2022-08-01T13:52:45;3.83;;;1.63;;
71610;SDS011;59459;51.172;6.682;2022-08-01T13:55:11;2.47;;;1.20;;
71610;SDS011;59459;51.172;6.682;2022-08-01T13:57:36;3.37;;;1.40;;
71610;SDS011;59459;51.172;6.682;2022-08-01T14:00:02;3.23;;;1.00;;
71610;SDS011;59459;51.172;6.682;2022-08-01T14:02:27;2.80;;;1.47;;
71610;SDS011;59459;51.172;6.682;2022-08-01T14:04:53;2.40;;;1.17;;
71610;SDS011;59459;51.172;6.682;2022-08-01T14:07:19;2.47;;;1.40;;
71610;SDS011;59459;51.172;6.682;2022-08-01T14:09:44;2.75;;;1.27;;
71610;SDS011;59459;51.172;6.682;2022-08-01T14:12:10;3.87;;;1.30;;
71610;SDS011;59459;51.172;6.682;2022-08-01T14:14:35;2.43;;;1.20;;
71610;SDS011;59459;51.172;6.682;2022-08-01T14:17:01;2.73;;;1.03;;
71610;SDS011;59459;51.172;6.682;2022-08-01T14:19:26;3.35;;;1.42;;
71610;SDS011;59459;51.172;6.682;2022-08-01T14:21:51;3.43;;;1.57;;
71610;SDS011;59459;51.172;6.682;2022-08-01T14:24:17;4.00;;;1.47;;
71610;SDS011;59459;51.172;6.682;2022-08-01T14:26:42;4.80;;;1.43;;
71610;SDS011;59459;51.172;6.682;2022-08-01T14:29:08;3.37;;;1.30;;
71610;SDS011;59459;51.172;6.682;2022-08-01T14:31:33;3.00;;;1.30;;
71610;SDS011;59459;51.172;6.682;2022-08-01T14:33:58;3.83;;;1.20;;
71610;SDS011;59459;51.172;6.682;2022-08-01T14:36:23;3.00;;;1.20;;
71610;SDS011;59459;51.172;6.682;2022-08-01T14:38:49;2.13;;;1.00;;
71610;SDS011;59459;51.172;6.682;2022-08-01T14:41:14;4.03;;;1.47;;
71610;SDS011;59459;51.172;6.682;2022-08-01T14:43:39;3.73;;;1.30;;
71610;SDS011;59459;51.172;6.682;2022-08-01T14:46:05;3.97;;;1.43;;
71610;SDS011;59459;51.172;6.682;2022-08-01T14:48:30;3.30;;;1.33;;
71610;SDS011;59459;51.172;6.682;2022-08-01T14:50:56;2.77;;;1.20;;
71610;SDS011;59459;51.172;6.682;2022-08-01T14:53:21;3.03;;;1.20;;
71610;SDS011;59459;51.172;6.682;2022-08-01T14:55:46;3.07;;;1.30;;
71610;SDS011;59459;51.172;6.682;2022-08-01T14:58:11;3.80;;;1.27;;
71610;SDS011;59459;51.172;6.682;2022-08-01T15:00:36;6.87;;;1.27;;
71610;SDS011;59459;51.172;6.682;2022-08-01T15:03:02;2.60;;;1.60;;
71610;SDS011;59459;51.172;6.682;2022-08-01T15:05:27;4.27;;;1.30;;
71610;SDS011;59459;51.172;6.682;2022-08-01T15:07:53;2.47;;;1.27;;
71610;SDS011;59459;51.172;6.682;2022-08-01T15:10:19;3.30;;;1.57;;
71610;SDS011;59459;51.172;6.682;2022-08-01T15:12:44;4.00;;;1.20;;
71610;SDS011;59459;51.172;6.682;2022-08-01T15:15:09;3.30;;;1.47;;
71610;SDS011;59459;51.172;6.682;2022-08-01T15:17:35;3.70;;;1.40;;
71610;SDS011;59459;51.172;6.682;2022-08-01T15:20:01;3.40;;;1.73;;
71610;SDS011;59459;51.172;6.682;2022-08-01T15:22:27;4.05;;;1.50;;
71610;SDS011;59459;51.172;6.682;2022-08-01T15:24:53;3.67;;;1.37;;
71610;SDS011;59459;51.172;6.682;2022-08-01T15:27:19;2.85;;;1.20;;
71610;SDS011;59459;51.172;6.682;2022-08-01T15:29:45;3.22;;;1.40;;
71610;SDS011;59459;51.172;6.682;2022-08-01T15:32:11;2.83;;;1.20;;
71610;SDS011;59459;51.172;6.682;2022-08-01T15:34:37;3.70;;;1.20;;
71610;SDS011;59459;51.172;6.682;2022-08-01T15:37:02;3.20;;;1.13;;
71610;SDS011;59459;51.172;6.682;2022-08-01T15:39:28;4.15;;;1.35;;